Time;durP1;ratioP1;P1;durP2;ratioP2;P2;SDS_P1;SDS_P2;PMS_P1;PMS_P2;Temp;Humidity;BMP_temperature;BMP_pressure;BME280_temperature;BME280_humidity;BME280_pressure;Samples;Min_cycle;Max_cycle;Signal;HPM_P1;HPM_P2
2022/06/06 00:01:40;;;;;;;3.23;2.77;;;;;;;26.35;51.79;99126.97;5053172;28;20220;-68
2022/06/06 00:04:08;;;;;;;3.37;2.70;;;;;;;26.26;52.09;99126.09;5053402;28;20575;-67
2022/06/06 00:06:35;;;;;;;4.47;2.60;;;;;;;26.23;52.24;99119.34;5053348;28;20196;-67
2022/06/06 00:09:02;;;;;;;3.73;3.10;;;;;;;26.26;52.02;99113.31;5053573;28;20196;-66
2022/06/06 00:11:32;;;;;;;4.47;2.70;;;;;;;26.24;52.76;99114.69;5053228;28;20722;-67
2022/06/06 00:13:59;;;;;;;5.57;3.50;;;;;;;26.22;52.31;99111.50;5053846;28;20180;-68
2022/06/06 00:16:25;;;;;;;3.43;2.87;;;;;;;26.17;53.29;99114.34;5053120;28;20200;-68
2022/06/06 00:18:52;;;;;;;4.23;3.63;;;;;;;26.10;53.32;99114.75;5053232;28;20251;-67
2022/06/06 00:21:20;;;;;;;4.20;3.80;;;;;;;26.10;52.94;99113.94;5053045;28;20641;-67
2022/06/06 00:23:47;;;;;;;5.40;3.87;;;;;;;26.13;53.39;99113.34;5052838;28;20197;-67
2022/06/06 00:26:15;;;;;;;5.90;4.50;;;;;;;26.25;53.97;99108.16;5052864;28;20246;-67
2022/06/06 00:28:44;;;;;;;5.67;5.27;;;;;;;26.33;53.53;99107.44;5053176;28;20203;-67
2022/06/06 00:36:41;;;;;;;10.73;7.50;;;;;;;26.41;52.34;99112.16;5052880;28;20184;-67
2022/06/06 00:39:11;;;;;;;8.00;6.33;;;;;;;26.48;52.41;99104.34;5052921;28;20232;-67
2022/06/06 00:41:39;;;;;;;7.97;7.03;;;;;;;26.54;52.01;99098.44;5052611;28;20208;-68
2022/06/06 00:44:08;;;;;;;7.73;7.30;;;;;;;26.52;52.02;99089.78;5053460;28;20242;-67
2022/06/06 00:46:41;;;;;;;7.27;6.57;;;;;;;26.46;51.63;99073.88;5052564;28;20197;-67
2022/06/06 00:49:15;;;;;;;7.40;6.90;;;;;;;26.50;51.95;99085.78;5052655;28;20189;-67
2022/06/06 00:51:44;;;;;;;7.83;7.03;;;;;;;26.57;51.48;99086.13;5052906;28;20187;-67
2022/06/06 00:54:11;;;;;;;6.77;6.13;;;;;;;26.48;51.60;99077.09;5052655;28;20197;-67
2022/06/06 00:56:44;;;;;;;6.77;6.17;;;;;;;26.53;52.49;99079.69;5052375;28;20664;-67
2022/06/06 00:59:14;;;;;;;10.87;6.93;;;;;;;26.58;51.61;99077.69;5052675;28;20246;-68
2022/06/06 01:01:42;;;;;;;9.43;6.80;;;;;;;26.58;51.75;99076.88;5052274;28;20659;-68
2022/06/06 01:04:11;;;;;;;6.93;6.33;;;;;;;26.60;52.12;99080.09;5052308;28;20201;-67
2022/06/06 01:06:41;;;;;;;6.87;6.27;;;;;;;26.61;52.78;99073.53;5052023;28;20192;-68
2022/06/06 01:09:10;;;;;;;6.23;5.83;;;;;;;26.63;52.68;99079.47;5052209;28;20192;-68
2022/06/06 01:11:41;;;;;;;6.30;5.70;;;;;;;26.70;52.24;99085.31;5052523;28;20283;-68
2022/06/06 01:14:11;;;;;;;5.80;5.30;;;;;;;26.74;52.23;99076.19;5052063;28;20663;-68
2022/06/06 01:16:47;;;;;;;6.23;5.73;;;;;;;26.77;51.92;99066.56;5052365;28;20546;-68
2022/06/06 01:19:40;;;;;;;5.90;5.50;;;;;;;26.73;52.68;99063.69;5051918;28;20242;-68
2022/06/06 01:22:43;;;;;;;5.63;5.03;;;;;;;26.65;52.44;99066.34;5052109;28;20259;-68
2022/06/06 01:25:54;;;;;;;5.93;4.87;;;;;;;26.63;52.63;99057.69;5049193;28;20249;-68
2022/06/06 01:28:39;;;;;;;5.83;4.63;;;;;;;26.63;52.52;99050.31;5041747;28;20623;-67
2022/06/06 01:31:12;;;;;;;5.20;4.40;;;;;;;26.60;52.41;99041.94;5053159;28;20192;-67
2022/06/06 01:33:52;;;;;;;4.53;4.17;;;;;;;26.55;52.63;99033.88;5051722;28;20243;-67
2022/06/06 01:36:20;;;;;;;5.33;4.77;;;;;;;26.45;53.46;99034.94;5051885;28;20241;-67
2022/06/06 01:38:48;;;;;;;5.20;4.80;;;;;;;26.29;53.81;99032.91;5051937;28;20652;-67
2022/06/06 01:41:22;;;;;;;5.40;4.60;;;;;;;26.24;53.99;99035.72;5051741;28;20245;-67
2022/06/06 01:43:55;;;;;;;7.47;4.97;;;;;;;26.13;54.32;99034.38;5051952;28;20613;-70
2022/06/06 01:46:27;;;;;;;6.13;4.57;;;;;;;26.03;54.91;99034.59;5051825;28;20188;-68
2022/06/06 01:48:56;;;;;;;4.73;4.00;;;;;;;25.94;54.94;99039.16;5052166;28;20242;-68
2022/06/06 01:51:25;;;;;;;3.60;3.30;;;;;;;25.84;55.24;99037.44;5051522;28;20650;-67
2022/06/06 01:53:52;;;;;;;4.37;3.97;;;;;;;25.75;55.74;99035.72;5052108;28;20254;-68
2022/06/06 01:56:23;;;;;;;6.80;3.60;;;;;;;25.68;55.84;99041.59;5051576;28;20661;-67
2022/06/06 01:58:52;;;;;;;3.33;2.87;;;;;;;25.61;55.85;99034.97;5051559;28;20250;-70
2022/06/06 02:01:19;;;;;;;4.20;3.80;;;;;;;25.57;56.24;99039.41;5054572;28;20224;-67
2022/06/06 02:03:46;;;;;;;4.90;3.30;;;;;;;25.60;56.62;99030.66;5055469;28;20197;-67
2022/06/06 02:06:14;;;;;;;7.33;3.50;;;;;;;25.62;55.95;99037.38;5055360;28;20679;-67
2022/06/06 02:08:42;;;;;;;6.57;4.17;;;;;;;25.67;55.69;99033.72;5055905;28;20228;-67
2022/06/06 02:11:09;;;;;;;7.80;3.30;;;;;;;25.67;56.19;99037.28;5055643;28;20201;-67
2022/06/06 02:13:37;;;;;;;3.43;3.13;;;;;;;25.68;55.66;99030.72;5055718;28;20254;-68
2022/06/06 02:16:06;;;;;;;7.03;3.03;;;;;;;25.70;55.62;99022.25;5055399;28;20196;-68
2022/06/06 02:18:33;;;;;;;3.53;3.07;;;;;;;25.66;55.70;99018.53;5055700;28;20266;-67
2022/06/06 02:21:01;;;;;;;6.37;3.30;;;;;;;25.52;56.29;99017.75;5055289;28;20221;-67
2022/06/06 02:23:28;;;;;;;3.07;2.87;;;;;;;25.42;56.49;99010.59;5055631;28;20195;-68
2022/06/06 02:25:55;;;;;;;7.50;3.47;;;;;;;25.37;57.15;99012.63;5055235;28;20287;-68
2022/06/06 02:28:22;;;;;;;6.60;3.10;;;;;;;25.29;56.77;99010.63;5055839;28;20193;-68
2022/06/06 02:30:49;;;;;;;3.80;3.50;;;;;;;25.21;56.81;99003.13;5055462;28;20200;-68
2022/06/06 02:33:17;;;;;;;8.07;3.33;;;;;;;25.17;57.38;99002.13;5055448;28;20203;-68
2022/06/06 02:35:44;;;;;;;3.80;3.50;;;;;;;25.12;57.51;99008.50;5056191;28;20599;-68
2022/06/06 02:38:12;;;;;;;3.63;3.33;;;;;;;25.10;57.77;99012.63;5055895;28;20200;-69
2022/06/06 02:40:41;;;;;;;4.50;3.70;;;;;;;25.13;58.18;99007.38;5054916;28;20209;-68
2022/06/06 02:43:07;;;;;;;4.23;3.83;;;;;;;25.22;57.61;99010.19;5054892;28;20653;-68
2022/06/06 02:45:34;;;;;;;9.30;4.00;;;;;;;25.23;57.38;99006.38;5055149;28;20254;-68
2022/06/06 02:48:01;;;;;;;8.83;4.43;;;;;;;25.20;57.22;99009.69;5054632;28;20196;-67
2022/06/06 02:50:32;;;;;;;5.10;4.20;;;;;;;25.17;57.53;99018.44;5054917;28;20657;-67
2022/06/06 02:53:00;;;;;;;8.00;3.60;;;;;;;25.25;58.01;99015.84;5054383;28;20652;-68
2022/06/06 02:55:27;;;;;;;4.73;3.57;;;;;;;25.28;57.71;99012.56;5054691;28;20579;-68
2022/06/06 02:57:54;;;;;;;10.17;4.73;;;;;;;25.25;57.86;99004.13;5054867;28;20193;-68
2022/06/06 03:00:24;;;;;;;4.37;4.00;;;;;;;25.31;57.87;99022.00;5054507;28;20277;-68
2022/06/06 03:02:51;;;;;;;7.03;4.30;;;;;;;25.38;57.78;99011.50;5054936;28;20279;-68
2022/06/06 03:05:18;;;;;;;6.13;4.20;;;;;;;25.43;57.75;99016.88;5054847;28;20254;-67
2022/06/06 03:08:00;;;;;;;9.30;3.83;;;;;;;25.46;58.14;99018.97;5055054;28;20250;-68
2022/06/06 03:10:35;;;;;;;7.23;4.03;;;;;;;25.52;57.78;99025.91;5054655;28;20271;-69
2022/06/06 03:13:19;;;;;;;10.93;4.20;;;;;;;25.64;56.76;99046.03;5053982;28;20730;-68
2022/06/06 03:22:11;;;;;;;6.67;4.20;;;;;;;25.74;57.57;99113.03;5054336;28;20204;-68
2022/06/06 03:24:49;;;;;;;8.73;4.07;;;;;;;25.93;56.38;99195.41;5053783;28;20188;-68
2022/06/06 03:27:25;;;;;;;24.40;4.50;;;;;;;25.09;57.49;99223.84;5054141;28;20188;-68
2022/06/06 03:30:02;;;;;;;18.57;4.00;;;;;;;24.79;62.66;99246.06;5053820;28;20262;-67
2022/06/06 03:32:39;;;;;;;15.00;4.03;;;;;;;24.15;68.82;99268.34;5053980;28;20241;-68
2022/06/06 03:35:14;;;;;;;10.17;4.17;;;;;;;23.41;75.00;99289.66;5053975;28;20192;-68
2022/06/06 03:37:48;;;;;;;14.43;4.60;;;;;;;22.67;80.56;99309.91;5053403;28;20692;-67
2022/06/06 03:40:23;;;;;;;9.80;4.50;;;;;;;22.25;85.65;99307.63;5053857;28;20598;-68
2022/06/06 03:43:01;;;;;;;7.33;3.73;;;;;;;21.63;91.46;99336.91;5053129;28;20230;-67
2022/06/06 03:45:38;;;;;;;9.17;4.60;;;;;;;21.77;92.01;99343.44;5053450;28;20651;-67
2022/06/06 03:48:17;;;;;;;8.67;4.40;;;;;;;21.56;95.31;99403.97;5053388;28;20641;-66
2022/06/06 03:50:49;;;;;;;6.37;4.17;;;;;;;21.49;96.97;99425.06;5053518;28;20188;-67
2022/06/06 03:53:23;;;;;;;6.10;4.70;;;;;;;21.64;97.96;99454.78;5054082;28;20212;-67
2022/06/06 03:56:03;;;;;;;8.43;4.50;;;;;;;21.76;98.70;99460.78;5054136;28;20184;-68
2022/06/06 03:58:33;;;;;;;6.57;5.47;;;;;;;21.99;98.11;99471.09;5054619;28;20197;-66
2022/06/06 04:01:03;;;;;;;7.30;5.20;;;;;;;21.99;98.35;99471.09;5053395;28;20645;-67
2022/06/06 04:03:33;;;;;;;8.50;5.33;;;;;;;21.90;100.00;99475.44;5053149;28;20739;-67
2022/06/06 04:06:02;;;;;;;8.97;6.20;;;;;;;21.66;100.00;99479.69;5053043;28;20257;-66
2022/06/06 04:08:32;;;;;;;7.20;4.93;;;;;;;21.76;100.00;99474.31;5052868;28;20283;-66
2022/06/06 04:11:12;;;;;;;7.67;5.30;;;;;;;21.35;100.00;99472.56;5053429;28;20228;-67
2022/06/06 04:13:45;;;;;;;11.17;6.40;;;;;;;21.26;100.00;99459.84;5053385;28;20189;-66
2022/06/06 04:16:23;;;;;;;9.53;5.77;;;;;;;21.49;100.00;99472.88;5052678;28;20623;-66
2022/06/06 04:19:06;;;;;;;8.63;6.10;;;;;;;21.59;100.00;99454.78;5052796;28;20238;-65
2022/06/06 04:21:45;;;;;;;8.07;6.10;;;;;;;21.46;100.00;99439.09;5052338;28;20192;-65
2022/06/06 04:24:31;;;;;;;8.57;6.07;;;;;;;21.59;100.00;99421.53;5051948;28;20706;-64
2022/06/06 04:27:06;;;;;;;6.03;5.50;;;;;;;21.55;100.00;99425.88;5053453;28;20192;-63
2022/06/06 04:29:39;;;;;;;12.77;5.93;;;;;;;21.83;100.00;99428.06;5053312;28;20245;-63
2022/06/06 04:32:14;;;;;;;5.90;5.17;;;;;;;22.02;100.00;99415.63;5053980;28;20263;-63
2022/06/06 04:34:48;;;;;;;10.53;5.30;;;;;;;21.92;100.00;99402.13;5052875;28;20648;-63
2022/06/06 04:37:22;;;;;;;9.23;5.40;;;;;;;22.12;100.00;99415.63;5052572;28;20644;-63
2022/06/06 04:39:58;;;;;;;8.20;5.77;;;;;;;22.40;99.74;99407.72;5053212;28;20232;-64
2022/06/06 04:42:35;;;;;;;10.03;5.90;;;;;;;22.16;99.85;99401.28;5052641;28;20196;-63
2022/06/06 04:45:07;;;;;;;11.60;5.63;;;;;;;22.10;100.00;99386.16;5053050;28;20262;-67
2022/06/06 04:47:37;;;;;;;10.20;5.47;;;;;;;22.16;100.00;99357.16;5052866;28;20185;-63
2022/06/06 04:50:06;;;;;;;8.70;5.00;;;;;;;22.25;100.00;99345.50;5052668;28;20266;-64
2022/06/06 04:52:34;;;;;;;8.23;4.97;;;;;;;22.17;99.45;99321.72;5052236;28;20224;-65
2022/06/06 04:55:02;;;;;;;5.87;5.37;;;;;;;22.05;100.00;99296.06;5052192;28;20683;-65
2022/06/06 04:57:31;;;;;;;6.60;5.10;;;;;;;22.22;99.30;99274.91;5052204;28;20580;-65
2022/06/06 04:59:59;;;;;;;7.57;5.10;;;;;;;22.42;98.52;99272.13;5067103;28;20335;-64
2022/06/06 05:02:27;;;;;;;8.27;5.10;;;;;;;22.37;97.59;99256.69;5072663;28;20196;-65
2022/06/06 05:04:53;;;;;;;7.63;4.60;;;;;;;22.36;98.25;99232.59;5072370;28;20196;-64
2022/06/06 05:07:35;;;;;;;10.13;5.27;;;;;;;22.32;97.24;99172.81;5071753;28;20725;-65
2022/06/06 05:10:23;;;;;;;5.43;4.93;;;;;;;22.41;98.37;99156.81;5071209;28;20195;-65
2022/06/06 05:13:14;;;;;;;5.70;4.73;;;;;;;22.46;97.40;99146.75;5071599;28;20741;-64
2022/06/06 05:15:54;;;;;;;7.27;5.63;;;;;;;22.76;95.54;99168.22;5035595;28;20283;-64
2022/06/06 05:18:40;;;;;;;8.87;4.97;;;;;;;23.18;94.17;99208.22;5070729;28;20199;-65
2022/06/06 05:21:25;;;;;;;6.07;4.00;;;;;;;23.69;90.75;99247.38;5070782;28;20209;-65
2022/06/06 05:24:26;;;;;;;5.67;4.70;;;;;;;24.18;86.22;99243.31;5070222;28;20633;-65
2022/06/06 05:27:15;;;;;;;5.70;3.53;;;;;;;24.50;84.85;99265.16;5070092;28;20183;-65
2022/06/06 05:30:05;;;;;;;5.20;3.93;;;;;;;24.83;82.46;99252.53;5067711;28;20186;-69
2022/06/06 05:32:56;;;;;;;7.27;3.27;;;;;;;25.08;81.25;99254.03;5060036;28;20706;-66
2022/06/06 05:35:45;;;;;;;6.80;4.17;;;;;;;25.32;79.25;99222.13;5068966;28;20253;-68
2022/06/06 05:38:23;;;;;;;4.93;3.20;;;;;;;25.50;78.70;99199.50;5048684;28;20199;-65
2022/06/06 05:40:57;;;;;;;5.10;3.83;;;;;;;25.53;80.22;99188.00;5057726;28;20184;-66
2022/06/06 05:43:40;;;;;;;5.57;4.07;;;;;;;25.51;79.34;99182.09;5069136;28;20241;-69
2022/06/06 05:46:21;;;;;;;4.70;4.07;;;;;;;25.52;80.18;99173.59;5068815;28;20184;-67
2022/06/06 05:49:05;;;;;;;8.80;5.03;;;;;;;25.50;81.42;99159.50;5068508;28;20184;-70
2022/06/06 05:51:45;;;;;;;6.40;4.47;;;;;;;25.69;80.91;99164.84;5069862;28;20686;-75
2022/06/06 05:54:23;;;;;;;7.50;4.63;;;;;;;26.15;78.23;99160.94;5069294;28;20227;-71
2022/06/06 05:57:14;;;;;;;5.43;3.43;;;;;;;26.79;76.22;99176.13;5070046;28;20184;-69
2022/06/06 06:00:01;;;;;;;5.03;3.17;;;;;;;27.09;74.68;99175.34;5070281;28;20191;-73
2022/06/06 06:03:01;;;;;;;3.87;3.17;;;;;;;26.98;73.64;99163.09;5068934;28;20191;-71
2022/06/06 06:05:42;;;;;;;8.87;3.20;;;;;;;27.39;73.37;99169.94;5067771;28;20196;-69
2022/06/06 06:08:18;;;;;;;4.40;2.57;;;;;;;27.62;69.88;99165.25;5070231;28;20179;-72
2022/06/06 06:10:52;;;;;;;4.13;2.60;;;;;;;28.13;70.18;99147.13;5068475;28;20183;-72
2022/06/06 06:13:28;;;;;;;2.53;2.20;;;;;;;28.63;67.24;99183.84;5070135;28;20208;-70
2022/06/06 06:16:00;;;;;;;4.27;2.87;;;;;;;28.95;64.24;99188.03;5070941;28;20203;-68
2022/06/06 06:18:32;;;;;;;3.53;2.40;;;;;;;29.06;64.25;99217.50;5070995;28;20184;-69
2022/06/06 06:21:07;;;;;;;3.50;2.07;;;;;;;29.24;63.91;99221.81;5070763;28;20245;-69
2022/06/06 06:23:37;;;;;;;9.07;2.87;;;;;;;29.52;63.13;99235.13;5070100;28;20642;-72
2022/06/06 06:26:06;;;;;;;9.30;3.40;;;;;;;29.32;64.46;99246.75;5065627;28;20267;-67
2022/06/06 06:28:36;;;;;;;4.00;2.83;;;;;;;28.72;66.14;99242.09;5070990;28;20196;-69
2022/06/06 06:31:19;;;;;;;11.33;3.50;;;;;;;29.00;64.71;99254.34;5071401;28;20759;-70
2022/06/06 06:34:06;;;;;;;3.33;2.80;;;;;;;29.19;63.27;99240.31;5071206;28;20195;-67
2022/06/06 06:36:44;;;;;;;6.10;3.10;;;;;;;29.19;63.68;99243.88;5072165;28;20253;-65
2022/06/06 06:39:26;;;;;;;3.63;3.00;;;;;;;29.18;63.48;99239.53;5071341;28;20318;-67
2022/06/06 06:42:07;;;;;;;4.33;3.93;;;;;;;29.40;64.90;99226.78;5071249;28;20225;-67
2022/06/06 06:44:39;;;;;;;7.87;3.80;;;;;;;29.57;64.91;99218.53;5071218;28;20249;-63
2022/06/06 06:47:11;;;;;;;7.00;4.20;;;;;;;29.53;64.31;99229.34;5075034;28;20192;-64
2022/06/06 06:49:42;;;;;;;3.40;2.93;;;;;;;29.48;62.61;99240.44;5075127;28;20192;-65
2022/06/06 06:52:22;;;;;;;5.30;3.10;;;;;;;29.45;62.44;99249.31;5074773;28;20211;-63
2022/06/06 06:55:03;;;;;;;4.03;3.60;;;;;;;29.21;65.40;99246.28;5074591;28;20184;-64
2022/06/06 06:57:43;;;;;;;6.83;4.07;;;;;;;29.08;64.96;99260.94;5075226;28;20188;-65
2022/06/06 07:00:13;;;;;;;6.57;4.10;;;;;;;28.88;67.45;99262.34;5074451;28;20202;-66
2022/06/06 07:08:43;;;;;;;9.20;5.00;;;;;;;28.35;69.19;99280.09;5074646;28;20187;-64
2022/06/06 07:11:25;;;;;;;5.47;3.77;;;;;;;28.31;68.21;99281.84;5074771;28;20195;-63
2022/06/06 07:14:04;;;;;;;5.17;3.77;;;;;;;28.34;69.37;99286.69;5074719;28;20208;-63
2022/06/06 07:16:34;;;;;;;4.43;3.50;;;;;;;28.42;70.47;99283.19;5074326;28;20695;-63
2022/06/06 07:19:06;;;;;;;3.97;3.57;;;;;;;28.51;68.25;99289.50;5074674;28;20191;-63
2022/06/06 07:21:34;;;;;;;5.27;3.37;;;;;;;28.65;68.31;99295.63;5074821;28;20192;-66
2022/06/06 07:24:05;;;;;;;5.97;3.57;;;;;;;28.68;67.33;99303.19;5074052;28;20695;-64
2022/06/06 07:26:38;;;;;;;3.57;3.27;;;;;;;28.76;66.45;99324.28;5075336;28;20278;-66
2022/06/06 07:29:06;;;;;;;6.93;3.73;;;;;;;28.77;66.47;99331.34;5074505;28;20184;-66
2022/06/06 07:31:44;;;;;;;8.53;3.40;;;;;;;28.74;66.99;99342.91;5074716;28;20195;-66
2022/06/06 07:34:34;;;;;;;7.90;3.47;;;;;;;28.71;68.00;99365.44;5074122;28;20309;-66
2022/06/06 07:37:12;;;;;;;7.87;3.50;;;;;;;28.14;66.53;99388.31;5072045;28;20192;-64
2022/06/06 07:39:54;;;;;;;10.47;3.73;;;;;;;27.50;68.13;99358.78;5074315;28;20293;-68
2022/06/06 07:42:52;;;;;;;5.50;4.30;;;;;;;27.26;70.79;99356.34;5074814;28;20532;-66
2022/06/06 07:45:25;;;;;;;4.03;3.47;;;;;;;27.16;71.07;99342.09;5073784;28;20644;-66
2022/06/06 07:48:04;;;;;;;5.63;4.07;;;;;;;27.27;71.10;99338.06;5074841;28;20203;-67
2022/06/06 07:50:37;;;;;;;5.07;4.10;;;;;;;27.27;71.84;99336.13;5074353;28;20180;-67
2022/06/06 07:53:11;;;;;;;7.10;3.97;;;;;;;27.07;73.17;99341.22;5073728;28;20627;-66
2022/06/06 07:55:49;;;;;;;11.57;4.53;;;;;;;27.10;73.12;99357.78;5073535;28;20242;-66
2022/06/06 07:58:21;;;;;;;21.03;6.67;;;;;;;26.51;75.96;99349.75;5074306;28;20192;-66
2022/06/06 08:01:02;;;;;;;31.57;9.97;;;;;;;26.12;81.08;99288.69;5073549;28;20275;-65
2022/06/06 08:03:39;;;;;;;15.20;5.93;;;;;;;26.13;79.94;99236.66;5073338;28;20663;-67
2022/06/06 08:06:37;;;;;;;12.73;5.60;;;;;;;26.05;79.13;99198.47;5073754;28;20184;-66
2022/06/06 08:09:44;;;;;;;9.90;5.60;;;;;;;25.98;79.72;99208.94;5074120;28;20180;-65
2022/06/06 08:12:30;;;;;;;13.93;5.53;;;;;;;25.58;82.00;99259.47;5073286;28;20219;-68
2022/06/06 08:15:09;;;;;;;8.40;4.63;;;;;;;25.55;83.06;99283.75;5073504;28;20261;-65
2022/06/06 08:17:46;;;;;;;10.93;5.20;;;;;;;25.81;82.85;99306.69;5073104;28;20233;-64
2022/06/06 08:20:22;;;;;;;14.00;5.43;;;;;;;26.05;83.67;99312.81;5069593;28;20264;-65
2022/06/06 08:22:51;;;;;;;11.77;5.87;;;;;;;26.32;82.02;99301.91;5072357;28;20199;-66
2022/06/06 08:25:20;;;;;;;11.73;5.80;;;;;;;26.64;82.09;99307.28;5073257;28;20227;-65
2022/06/06 08:27:51;;;;;;;11.43;4.90;;;;;;;27.00;80.17;99313.56;5073153;28;20241;-64
2022/06/06 08:30:20;;;;;;;8.27;5.70;;;;;;;27.55;80.73;99314.97;5073137;28;20194;-63
2022/06/06 08:32:47;;;;;;;7.77;5.40;;;;;;;28.11;77.96;99309.72;5072693;28;20220;-65
2022/06/06 08:35:14;;;;;;;7.23;5.10;;;;;;;28.39;76.75;99319.31;5072956;28;20196;-64
2022/06/06 08:38:05;;;;;;;8.07;5.00;;;;;;;28.60;74.77;99331.31;5072779;28;20664;-64
2022/06/06 08:41:07;;;;;;;6.90;5.00;;;;;;;28.95;72.78;99327.53;5062611;28;20184;-65
2022/06/06 08:43:58;;;;;;;6.07;4.90;;;;;;;29.05;71.63;99332.72;5070821;28;20255;-62
2022/06/06 08:46:44;;;;;;;9.37;5.03;;;;;;;28.94;71.47;99353.25;5072904;28;20196;-63
2022/06/06 08:52:19;;;;;;;5.90;4.27;;;;;;;28.83;72.05;99379.31;5072834;28;20568;-62
2022/06/06 08:55:22;;;;;;;5.87;4.07;;;;;;;28.76;73.15;99378.97;5072442;28;20643;-64
2022/06/06 08:58:03;;;;;;;11.50;5.27;;;;;;;28.35;74.34;99362.06;5056054;28;20192;-63
2022/06/06 09:00:45;;;;;;;6.50;4.27;;;;;;;28.16;75.36;99321.31;5072849;28;20238;-63
2022/06/06 09:03:41;;;;;;;7.27;5.57;;;;;;;28.16;75.64;99299.47;5072313;28;20192;-63
2022/06/06 09:06:46;;;;;;;6.30;4.67;;;;;;;28.20;75.28;99266.84;5072192;28;20655;-63
2022/06/06 09:09:47;;;;;;;5.87;4.30;;;;;;;28.17;75.07;99207.41;5071649;28;20180;-65
2022/06/06 09:13:01;;;;;;;13.27;5.80;;;;;;;27.71;75.28;99235.13;5072492;28;20198;-65
2022/06/06 09:16:03;;;;;;;5.20;4.67;;;;;;;27.82;75.88;99304.78;5069736;28;20188;-65
2022/06/06 09:19:10;;;;;;;10.40;5.20;;;;;;;27.92;76.96;99314.59;5069453;28;20237;-66
2022/06/06 09:21:58;;;;;;;9.73;5.27;;;;;;;28.03;78.16;99310.50;5067437;28;20620;-68
2022/06/06 09:25:07;;;;;;;8.93;4.27;;;;;;;28.19;76.95;99303.50;5068930;28;20230;-64
2022/06/06 09:28:30;;;;;;;11.27;5.03;;;;;;;28.35;76.73;99307.41;5062388;28;20676;-67
2022/06/06 09:31:51;;;;;;;8.57;4.87;;;;;;;28.37;75.31;99305.16;5067431;28;20215;-66
2022/06/06 09:34:54;;;;;;;5.70;4.13;;;;;;;28.19;71.61;99303.50;5062756;28;20269;-64
2022/06/06 09:37:33;;;;;;;5.37;4.07;;;;;;;28.18;72.93;99299.16;5033968;28;20278;-64
2022/06/06 09:40:17;;;;;;;7.33;4.53;;;;;;;28.25;74.17;99277.63;5067052;28;20216;-67
2022/06/06 09:43:09;;;;;;;7.23;4.77;;;;;;;28.45;74.16;99279.81;5068685;28;20275;-66
2022/06/06 09:45:51;;;;;;;11.37;4.30;;;;;;;28.52;72.71;99286.44;5069737;28;20228;-62
2022/06/06 09:49:01;;;;;;;5.73;4.27;;;;;;;28.54;72.49;99281.44;5069221;28;20233;-65
2022/06/06 09:52:18;;;;;;;9.70;3.83;;;;;;;28.60;73.37;99282.09;5069797;28;20195;-65
2022/06/06 09:59:04;;;;;;;5.50;4.00;;;;;;;28.68;72.38;99312.22;5003083;28;20262;-60
2022/06/06 10:02:05;;;;;;;5.97;4.30;;;;;;;28.87;72.21;99331.06;5071556;28;20245;-61
2022/06/06 10:05:16;;;;;;;6.50;4.43;;;;;;;28.94;71.61;99340.41;5068385;28;20250;-61
2022/06/06 10:08:30;;;;;;;6.33;4.03;;;;;;;28.92;72.25;99339.91;5070484;28;20617;-60
2022/06/06 10:11:20;;;;;;;5.13;3.93;;;;;;;28.89;72.68;99346.03;5071004;28;20188;-60
2022/06/06 10:14:08;;;;;;;8.43;4.23;;;;;;;28.82;72.87;99329.28;5071613;28;20230;-60
2022/06/06 10:16:59;;;;;;;6.00;4.30;;;;;;;28.83;73.66;99322.69;5071546;28;20561;-60
2022/06/06 10:19:47;;;;;;;4.80;4.00;;;;;;;28.79;73.53;99263.50;5071733;28;20208;-61
2022/06/06 10:22:39;;;;;;;9.13;4.60;;;;;;;28.74;72.47;99266.34;5073935;28;20724;-60
2022/06/06 10:25:28;;;;;;;9.47;4.43;;;;;;;28.50;73.24;99304.28;5075236;28;20184;-60
2022/06/06 10:28:14;;;;;;;7.47;4.17;;;;;;;28.43;73.62;99320.34;5069989;28;20261;-60
2022/06/06 10:31:00;;;;;;;8.73;4.27;;;;;;;28.35;74.34;99335.56;5073372;28;20632;-65
2022/06/06 10:33:53;;;;;;;10.37;4.97;;;;;;;28.32;74.27;99359.94;5074336;28;20268;-60
2022/06/06 10:37:02;;;;;;;15.80;5.67;;;;;;;28.25;75.43;99357.69;5073536;28;20651;-65
2022/06/06 10:39:53;;;;;;;6.30;4.63;;;;;;;28.21;75.71;99375.00;5026247;28;20227;-61
2022/06/06 10:42:34;;;;;;;7.10;5.43;;;;;;;28.14;76.77;99372.72;5052700;28;20189;-60
2022/06/06 10:45:25;;;;;;;10.70;5.60;;;;;;;27.89;77.30;99375.31;5055119;28;20275;-60
2022/06/06 10:48:18;;;;;;;6.23;5.60;;;;;;;27.67;78.47;99376.09;5044847;28;20188;-60
2022/06/06 10:54:14;;;;;;;10.30;4.33;;;;;;;26.90;78.90;99387.41;5073584;28;20214;-61
2022/06/06 10:57:10;;;;;;;6.53;4.60;;;;;;;26.51;80.58;99392.53;5073597;28;20219;-62
2022/06/06 11:00:15;;;;;;;9.97;4.87;;;;;;;25.86;80.74;99396.41;5074526;28;20188;-61
2022/06/06 11:03:13;;;;;;;5.07;4.37;;;;;;;25.63;80.94;99389.19;5064404;28;20195;-64
2022/06/06 11:06:19;;;;;;;4.97;4.00;;;;;;;25.50;80.02;99389.91;5073378;28;20271;-60
2022/06/06 11:09:27;;;;;;;6.67;4.17;;;;;;;25.59;79.60;99380.78;5071058;28;20257;-62
2022/06/06 11:12:16;;;;;;;6.27;3.73;;;;;;;25.74;78.01;99377.00;5072378;28;20242;-67
2022/06/06 11:14:45;;;;;;;8.50;4.50;;;;;;;25.74;77.41;99366.13;5071910;28;20208;-62
2022/06/06 11:17:49;;;;;;;8.33;4.87;;;;;;;25.57;78.28;99330.50;5072957;28;20659;-64
2022/06/06 11:20:57;;;;;;;4.50;4.07;;;;;;;25.47;79.72;99312.41;5071628;28;20207;-62
2022/06/06 11:23:32;;;;;;;5.37;3.63;;;;;;;25.52;79.92;99308.81;5034086;28;20196;-62
2022/06/06 11:26:30;;;;;;;4.57;3.50;;;;;;;25.73;79.28;99334.59;5073283;28;20190;-63
2022/06/06 11:29:22;;;;;;;4.50;3.03;;;;;;;26.02;76.45;99351.50;5073936;28;20192;-62
2022/06/06 11:31:55;;;;;;;3.07;2.87;;;;;;;26.19;75.49;99363.44;5071491;28;20192;-66
2022/06/06 11:35:05;;;;;;;5.93;3.00;;;;;;;26.33;72.79;99377.88;5072594;28;20204;-60
2022/06/06 11:38:07;;;;;;;6.03;2.90;;;;;;;26.09;73.19;99357.38;5071897;28;20275;-61
2022/06/06 11:41:02;;;;;;;9.10;3.13;;;;;;;25.81;75.45;99340.16;5072162;28;20180;-60
2022/06/06 11:43:53;;;;;;;7.77;3.50;;;;;;;25.67;77.41;99316.72;5072694;28;20249;-60
2022/06/06 11:46:55;;;;;;;4.57;3.00;;;;;;;25.66;76.95;99305.03;5072917;28;20188;-65
2022/06/06 11:49:57;;;;;;;9.53;3.50;;;;;;;25.65;76.90;99302.59;5073288;28;20698;-61
2022/06/06 11:52:53;;;;;;;6.27;2.70;;;;;;;25.80;76.48;99294.19;5071719;28;20619;-63
2022/06/06 11:55:35;;;;;;;14.50;4.47;;;;;;;25.85;76.27;99285.94;5072667;28;20193;-62
2022/06/06 11:59:01;;;;;;;3.87;2.90;;;;;;;26.04;75.87;99278.53;5071224;28;20188;-64
2022/06/06 12:01:57;;;;;;;4.07;3.20;;;;;;;26.14;75.49;99289.22;5072947;28;20200;-71
2022/06/06 12:05:04;;;;;;;7.10;2.27;;;;;;;26.22;71.41;99302.94;5071538;28;20736;-71
2022/06/06 12:08:02;;;;;;;5.63;2.60;;;;;;;26.08;70.18;99293.13;5036930;28;20191;-70
2022/06/06 12:10:33;;;;;;;3.10;2.33;;;;;;;26.13;71.23;99282.94;5072044;28;20188;-71
2022/06/06 12:13:41;;;;;;;5.57;3.00;;;;;;;26.35;70.03;99290.41;5073034;28;20238;-70
2022/06/06 12:16:30;;;;;;;4.70;2.50;;;;;;;26.33;69.68;99298.88;5053077;28;20278;-71
2022/06/06 12:19:48;;;;;;;9.73;2.50;;;;;;;26.24;71.97;99297.16;5049079;28;20668;-70
2022/06/06 12:22:35;;;;;;;8.50;2.57;;;;;;;26.38;71.68;99303.44;5052026;28;20196;-72
2022/06/06 12:25:35;;;;;;;2.87;2.67;;;;;;;26.55;70.89;99306.34;5060254;28;20980;-73
2022/06/06 12:28:20;;;;;;;4.73;2.27;;;;;;;26.66;71.10;99313.25;5051720;28;20224;-73
2022/06/06 12:31:00;;;;;;;5.53;2.50;;;;;;;26.60;71.19;99307.09;5052138;28;20243;-70
2022/06/06 12:33:32;;;;;;;6.53;2.90;;;;;;;26.44;70.64;99315.81;5052127;28;20208;-70
2022/06/06 12:36:03;;;;;;;6.57;2.90;;;;;;;26.65;70.37;99306.16;5052435;28;20190;-70
2022/06/06 12:38:47;;;;;;;3.90;3.07;;;;;;;26.78;69.44;99303.41;5053924;28;20580;-71
2022/06/06 12:41:30;;;;;;;4.37;3.13;;;;;;;27.01;69.19;99307.00;5070944;28;20613;-72
2022/06/06 12:44:01;;;;;;;10.83;3.20;;;;;;;27.23;67.25;99312.53;5069048;28;20187;-71
2022/06/06 12:46:57;;;;;;;4.43;2.80;;;;;;;27.35;66.95;99301.84;5071274;28;20250;-70
2022/06/06 12:49:44;;;;;;;7.80;2.47;;;;;;;27.55;64.58;99304.88;5060653;28;20192;-71
2022/06/06 12:52:31;;;;;;;5.43;2.20;;;;;;;27.75;63.63;99309.00;5071436;28;20188;-71
2022/06/06 12:55:30;;;;;;;2.67;1.77;;;;;;;28.00;62.44;99311.09;5071992;28;20583;-70
2022/06/06 12:58:07;;;;;;;7.83;2.00;;;;;;;28.13;61.11;99308.28;5072027;28;20188;-69
2022/06/06 13:03:31;;;;;;;2.73;2.40;;;;;;;28.49;60.99;99297.19;5070648;28;20180;-72
2022/06/06 13:06:05;;;;;;;3.37;2.10;;;;;;;28.77;60.21;99304.00;5070330;28;20282;-68